createdAt,value
2018-06-27T00:01:43.218Z,70.97
2018-06-27T00:04:12.771Z,70.55
2018-06-27T00:06:43.081Z,72.52
2018-06-27T00:09:12.882Z,71.37
2018-06-27T00:11:42.753Z,72.89
2018-06-27T00:14:12.695Z,73.67
2018-06-27T00:16:42.269Z,73.11
2018-06-27T00:19:11.823Z,74.48
2018-06-27T00:21:42.130Z,73.50
2018-06-27T00:24:11.769Z,73.55
2018-06-27T00:26:41.515Z,74.35
2018-06-27T00:29:11.592Z,74.35
2018-06-27T00:31:41.191Z,75.07
2018-06-27T00:34:11.401Z,74.96
2018-06-27T00:36:41.210Z,75.82
2018-06-27T00:39:11.343Z,75.66
2018-06-27T00:41:41.164Z,75.57
2018-06-27T00:44:10.894Z,74.40
2018-06-27T00:46:40.553Z,75.40
2018-06-27T00:49:10.411Z,75.53
2018-06-27T00:51:40.487Z,75.58
2018-06-27T00:54:10.527Z,76.36
2018-06-27T00:56:41.374Z,75.89
2018-06-27T00:59:11.138Z,75.90
2018-06-27T01:01:40.645Z,75.78
2018-06-27T01:04:10.272Z,75.85
2018-06-27T01:06:40.619Z,76.54
2018-06-27T01:09:11.151Z,76.48
2018-06-27T01:11:41.388Z,76.15
2018-06-27T01:14:11.061Z,76.48
2018-06-27T01:16:40.628Z,76.98
2018-06-27T01:19:10.551Z,77.81
2018-06-27T01:21:40.322Z,77.97
2018-06-27T01:24:10.539Z,77.77
2018-06-27T01:26:40.330Z,78.24
2018-06-27T01:29:10.083Z,78.37
2018-06-27T01:31:40.301Z,77.91
2018-06-27T01:34:10.173Z,77.78
2018-06-27T01:36:40.392Z,78.20
2018-06-27T01:39:10.930Z,77.78
2018-06-27T01:41:41.189Z,77.83
2018-06-27T01:44:10.743Z,77.90
2018-06-27T01:46:40.356Z,78.21
2018-06-27T01:49:09.932Z,78.01
2018-06-27T01:51:39.690Z,78.24
2018-06-27T01:54:10.037Z,78.22
2018-06-27T01:56:39.747Z,78.26
2018-06-27T01:59:09.732Z,78.11
2018-06-27T02:01:39.964Z,78.07
2018-06-27T02:04:09.779Z,78.12
2018-06-27T02:06:39.554Z,77.61
2018-06-27T02:09:10.528Z,78.00
2018-06-27T02:11:40.847Z,78.12
2018-06-27T02:14:10.397Z,77.90
2018-06-27T02:16:39.994Z,78.07
2018-06-27T02:19:09.926Z,77.97
2018-06-27T02:21:39.836Z,77.92
2018-06-27T02:24:10.078Z,77.99
2018-06-27T02:26:39.723Z,77.80
2018-06-27T02:29:09.284Z,78.06
2018-06-27T02:31:39.288Z,78.61
2018-06-27T02:34:08.984Z,78.47
2018-06-27T02:36:39.004Z,78.77
2018-06-27T02:39:10.430Z,79.31
2018-06-27T02:41:42.068Z,79.18
2018-06-27T02:44:11.930Z,78.96
2018-06-27T02:46:41.509Z,77.39
2018-06-27T02:49:11.485Z,76.40
2018-06-27T02:51:41.363Z,75.51
2018-06-27T02:54:10.878Z,75.52
2018-06-27T02:56:40.956Z,75.57
2018-06-27T02:59:10.954Z,75.99
2018-06-27T03:01:40.648Z,76.35
2018-06-27T03:04:10.323Z,76.47
2018-06-27T03:06:40.124Z,75.58
2018-06-27T03:09:10.990Z,76.38
2018-06-27T03:11:40.582Z,76.22
2018-06-27T03:14:10.619Z,76.14
2018-06-27T03:16:40.253Z,76.33
2018-06-27T03:19:09.778Z,76.37
2018-06-27T03:21:39.856Z,76.49
2018-06-27T03:24:09.640Z,77.08
2018-06-27T03:26:39.343Z,77.45
2018-06-27T03:29:09.370Z,77.69
2018-06-27T03:31:39.494Z,77.55
2018-06-27T03:34:09.828Z,77.98
2018-06-27T03:36:39.478Z,77.63
2018-06-27T03:39:10.065Z,77.81
2018-06-27T03:41:39.754Z,78.34
2018-06-27T03:44:09.243Z,78.41
2018-06-27T03:46:38.864Z,79.03
2018-06-27T03:49:08.398Z,80.08
2018-06-27T03:51:37.986Z,80.55
2018-06-27T03:54:08.023Z,79.03
2018-06-27T03:56:37.970Z,78.32
2018-06-27T03:59:07.884Z,78.34
2018-06-27T04:01:37.870Z,77.79
2018-06-27T04:04:07.576Z,77.95
2018-06-27T04:06:37.314Z,78.33
2018-06-27T04:09:11.584Z,77.43
2018-06-27T04:11:42.362Z,77.63
2018-06-27T04:14:12.026Z,77.32
2018-06-27T04:16:41.529Z,77.92
2018-06-27T04:19:11.240Z,78.86
2018-06-27T04:21:41.144Z,78.80
2018-06-27T04:24:10.606Z,79.42
2018-06-27T04:26:40.714Z,78.49
2018-06-27T04:29:10.405Z,78.46
2018-06-27T04:31:40.322Z,78.56
2018-06-27T04:34:10.150Z,78.15
2018-06-27T04:36:39.958Z,78.51
2018-06-27T04:39:11.347Z,78.67
2018-06-27T04:41:41.142Z,78.80
2018-06-27T04:44:10.834Z,79.03
2018-06-27T04:46:40.735Z,78.83
2018-06-27T04:49:10.649Z,79.21
2018-06-27T04:51:40.381Z,78.34
2018-06-27T04:54:15.492Z,77.71
2018-06-27T04:56:45.150Z,78.35
2018-06-27T04:59:14.734Z,77.64
2018-06-27T05:01:44.686Z,77.41
2018-06-27T05:04:14.258Z,76.17
2018-06-27T05:06:44.040Z,77.89
2018-06-27T05:09:14.207Z,77.12
2018-06-27T05:11:44.054Z,77.58
2018-06-27T05:14:13.581Z,76.44
2018-06-27T05:16:43.195Z,76.88
2018-06-27T05:19:13.158Z,77.84
2018-06-27T05:21:43.472Z,77.02
2018-06-27T05:24:13.462Z,77.10
2018-06-27T05:26:43.928Z,76.72
2018-06-27T05:29:13.813Z,76.80
2018-06-27T05:31:43.810Z,77.00
2018-06-27T05:34:14.266Z,76.33
2018-06-27T05:36:44.072Z,76.81
2018-06-27T05:39:14.126Z,76.33
2018-06-27T05:41:43.911Z,76.50
2018-06-27T05:44:13.450Z,76.76
2018-06-27T05:46:43.418Z,76.86
2018-06-27T05:49:13.115Z,77.26
2018-06-27T05:51:43.306Z,77.40
2018-06-27T05:54:13.179Z,77.10
2018-06-27T05:56:43.158Z,77.17
2018-06-27T05:59:13.302Z,78.30
2018-06-27T06:01:43.090Z,78.23
2018-06-27T06:04:13.502Z,78.10
2018-06-27T06:06:43.218Z,77.68
2018-06-27T06:09:13.420Z,77.54
2018-06-27T06:11:43.042Z,77.38
2018-06-27T06:14:12.671Z,77.90
2018-06-27T06:16:42.463Z,78.46
2018-06-27T06:19:12.259Z,77.85
2018-06-27T06:21:42.184Z,78.26
2018-06-27T06:24:12.179Z,78.33
2018-06-27T06:26:41.866Z,78.23
2018-06-27T06:29:11.805Z,77.09
2018-06-27T06:31:41.615Z,78.25
2018-06-27T06:34:11.926Z,77.99
2018-06-27T06:36:41.745Z,77.61
2018-06-27T06:39:12.188Z,77.67
2018-06-27T06:41:41.923Z,77.76
2018-06-27T06:44:11.705Z,78.27
2018-06-27T06:46:41.578Z,78.40
2018-06-27T06:49:11.052Z,78.79
2018-06-27T06:51:40.668Z,79.12
2018-06-27T06:54:10.865Z,78.29
2018-06-27T06:56:40.626Z,78.48
2018-06-27T06:59:10.713Z,77.25
2018-06-27T07:01:40.445Z,77.10
2018-06-27T07:04:10.266Z,77.17
2018-06-27T07:06:40.168Z,77.10
2018-06-27T07:09:12.384Z,76.02
2018-06-27T07:11:42.818Z,76.08
2018-06-27T07:14:13.126Z,76.92
2018-06-27T07:16:42.766Z,77.12
2018-06-27T07:19:12.239Z,76.47
2018-06-27T07:21:41.818Z,75.71
2018-06-27T07:24:11.941Z,76.52
2018-06-27T07:26:41.648Z,76.42
2018-06-27T07:29:11.387Z,76.29
2018-06-27T07:31:41.103Z,76.55
2018-06-27T07:34:10.819Z,75.90
2018-06-27T07:36:40.763Z,75.86
2018-06-27T07:39:11.775Z,75.36
2018-06-27T07:41:41.919Z,75.00
2018-06-27T07:44:11.715Z,75.05
2018-06-27T07:46:41.816Z,74.61
2018-06-27T07:49:11.334Z,74.82
2018-06-27T07:51:40.864Z,75.86
2018-06-27T07:54:10.703Z,74.60
2018-06-27T07:56:40.467Z,74.03
2018-06-27T07:59:10.384Z,74.16
2018-06-27T08:01:40.451Z,73.81
2018-06-27T08:04:10.104Z,74.68
2018-06-27T08:06:43.931Z,73.01
2018-06-27T08:09:13.888Z,72.07
2018-06-27T08:11:44.475Z,71.45
2018-06-27T08:14:14.206Z,71.99
2018-06-27T08:16:43.870Z,71.32
2018-06-27T08:19:13.767Z,71.26
2018-06-27T08:21:43.391Z,70.58
2018-06-27T08:24:13.053Z,69.68
2018-06-27T08:26:43.829Z,70.13
2018-06-27T08:29:13.664Z,70.29
2018-06-27T08:31:43.495Z,69.72
2018-06-27T08:34:13.807Z,70.90
2018-06-27T08:36:43.633Z,72.22
2018-06-27T08:39:13.149Z,71.61
2018-06-27T08:41:43.325Z,69.69
2018-06-27T08:44:12.979Z,69.88
2018-06-27T08:46:42.623Z,70.30
2018-06-27T08:49:12.985Z,71.59
2018-06-27T08:51:42.586Z,71.75
2018-06-27T08:54:12.475Z,71.20
2018-06-27T08:56:42.245Z,71.61
2018-06-27T08:59:11.949Z,70.68
2018-06-27T09:01:41.879Z,70.28
2018-06-27T09:04:11.779Z,70.69
2018-06-27T09:06:41.532Z,69.67
2018-06-27T09:09:12.915Z,69.60
2018-06-27T09:11:43.291Z,68.93
2018-06-27T09:14:13.524Z,67.70
2018-06-27T09:16:43.234Z,67.52
2018-06-27T09:19:12.956Z,67.42
2018-06-27T09:21:42.770Z,68.43
2018-06-27T09:24:12.299Z,68.17
2018-06-27T09:26:42.106Z,67.68
2018-06-27T09:29:11.755Z,66.58
2018-06-27T09:31:41.672Z,67.03
2018-06-27T09:34:12.009Z,66.16
2018-06-27T09:36:41.947Z,66.50
2018-06-27T09:39:11.896Z,66.41
2018-06-27T09:41:41.883Z,66.15
2018-06-27T09:44:11.541Z,64.74
2018-06-27T09:46:41.882Z,64.44
2018-06-27T09:49:11.516Z,64.64
2018-06-27T09:51:41.165Z,63.76
2018-06-27T09:54:11.084Z,63.94
2018-06-27T09:56:41.888Z,64.37
2018-06-27T09:59:11.806Z,64.37
2018-06-27T10:01:41.593Z,63.94
2018-06-27T10:04:11.826Z,65.00
2018-06-27T10:06:41.595Z,65.07
2018-06-27T10:09:11.969Z,65.75
2018-06-27T10:11:41.864Z,65.88
2018-06-27T10:14:12.019Z,65.93
2018-06-27T10:16:41.980Z,66.18
2018-06-27T10:19:11.548Z,65.75
2018-06-27T10:21:41.386Z,66.12
2018-06-27T10:24:10.891Z,66.01
2018-06-27T10:26:41.054Z,66.73
2018-06-27T10:29:10.687Z,66.96
2018-06-27T10:31:40.308Z,67.26
2018-06-27T10:34:10.625Z,67.21
2018-06-27T10:36:40.301Z,67.16
2018-06-27T10:39:11.717Z,68.04
2018-06-27T10:41:41.468Z,68.31
2018-06-27T10:44:11.709Z,69.10
2018-06-27T10:46:41.705Z,69.14
2018-06-27T10:49:11.539Z,70.08
2018-06-27T10:51:41.428Z,70.02
2018-06-27T10:54:11.055Z,69.25
2018-06-27T10:56:40.998Z,68.12
2018-06-27T10:59:10.710Z,70.96
2018-06-27T11:01:40.901Z,71.61
2018-06-27T11:04:10.875Z,72.65
2018-06-27T11:06:41.066Z,72.21
2018-06-27T11:09:10.871Z,72.14
2018-06-27T11:11:40.553Z,72.46
2018-06-27T11:14:10.831Z,73.42
2018-06-27T11:16:40.492Z,73.74
2018-06-27T11:22:20.614Z,74.56
2018-06-27T11:24:50.206Z,75.44
2018-06-27T11:27:19.843Z,76.18
2018-06-27T11:29:49.510Z,75.84
2018-06-27T11:32:19.267Z,75.79
2018-06-27T11:34:49.239Z,75.56
2018-06-27T11:37:19.418Z,75.15
2018-06-27T11:39:49.191Z,75.87
2018-06-27T11:42:18.678Z,75.80
2018-06-27T11:44:48.459Z,74.82
2018-06-27T11:47:18.139Z,77.32
2018-06-27T11:49:47.826Z,77.03
2018-06-27T11:52:17.560Z,77.36
2018-06-27T11:54:51.543Z,77.85
2018-06-27T11:57:21.184Z,78.44
2018-06-27T11:59:50.744Z,78.30
2018-06-27T12:02:20.498Z,78.37
2018-06-27T12:04:50.403Z,78.38
2018-06-27T12:07:20.303Z,78.63
2018-06-27T12:09:49.984Z,78.87
2018-06-27T12:12:19.628Z,78.54
2018-06-27T12:14:49.320Z,79.04
2018-06-27T12:17:18.847Z,78.36
2018-06-27T12:19:48.532Z,78.66
2018-06-27T12:22:18.500Z,78.98
2018-06-27T12:24:51.718Z,78.08
2018-06-27T12:27:21.383Z,78.16
2018-06-27T12:29:51.113Z,77.69
2018-06-27T12:32:20.976Z,77.83
2018-06-27T12:34:51.075Z,77.72
2018-06-27T12:37:21.052Z,76.70
2018-06-27T12:39:50.835Z,76.41
2018-06-27T12:42:21.012Z,73.90
2018-06-27T12:44:51.015Z,74.38
2018-06-27T12:47:21.035Z,75.37
2018-06-27T12:49:50.686Z,75.19
2018-06-27T12:52:20.386Z,74.93
2018-06-27T12:54:53.345Z,75.20
2018-06-27T12:57:22.931Z,75.64
2018-06-27T12:59:52.660Z,75.39
2018-06-27T13:02:22.271Z,75.54
2018-06-27T13:04:52.038Z,75.54
2018-06-27T13:07:21.845Z,75.14
2018-06-27T13:09:51.709Z,75.70
2018-06-27T13:12:21.528Z,75.81
2018-06-27T13:14:51.230Z,75.72
2018-06-27T13:17:21.004Z,76.38
2018-06-27T13:19:50.849Z,76.97
2018-06-27T13:22:20.661Z,77.58
2018-06-27T13:24:50.246Z,78.57
2018-06-27T13:27:19.906Z,78.13
2018-06-27T13:29:49.427Z,77.83
2018-06-27T13:32:19.331Z,77.74
2018-06-27T13:34:49.100Z,77.01
2018-06-27T13:37:18.823Z,76.69
2018-06-27T13:39:48.712Z,76.68
2018-06-27T13:42:18.551Z,76.48
2018-06-27T13:44:48.747Z,75.90
2018-06-27T13:47:18.594Z,75.78
2018-06-27T13:49:48.768Z,75.62
2018-06-27T13:52:18.415Z,75.37
2018-06-27T13:54:53.420Z,75.12
2018-06-27T13:57:23.279Z,74.52
2018-06-27T13:59:52.837Z,73.50
2018-06-27T14:02:22.635Z,72.95
2018-06-27T14:04:52.236Z,72.94
2018-06-27T14:07:21.961Z,72.93
2018-06-27T14:09:51.723Z,73.97
2018-06-27T14:12:21.687Z,74.25
2018-06-27T14:14:51.649Z,73.75
2018-06-27T14:17:21.274Z,73.97
2018-06-27T14:19:51.043Z,74.32
2018-06-27T14:22:20.781Z,73.73
2018-06-27T14:24:50.772Z,73.92
2018-06-27T14:27:20.245Z,73.36
2018-06-27T14:29:50.140Z,73.79
2018-06-27T14:32:19.801Z,74.21
2018-06-27T14:34:49.613Z,74.29
2018-06-27T14:37:19.607Z,74.18
2018-06-27T14:39:49.596Z,74.52
2018-06-27T14:42:19.471Z,74.12
2018-06-27T14:44:49.387Z,74.34
2018-06-27T14:47:19.498Z,74.12
2018-06-27T14:49:49.479Z,74.67
2018-06-27T14:52:19.088Z,74.27
2018-06-27T14:54:50.127Z,73.09
2018-06-27T14:57:20.165Z,72.82
2018-06-27T14:59:50.188Z,74.11
2018-06-27T15:02:20.235Z,73.84
2018-06-27T15:04:49.997Z,74.59
2018-06-27T15:07:19.902Z,74.87
2018-06-27T15:09:49.634Z,73.79
2018-06-27T15:12:19.647Z,74.70
2018-06-27T15:14:49.486Z,75.04
2018-06-27T15:17:19.358Z,75.85
2018-06-27T15:19:49.246Z,75.75
2018-06-27T15:22:18.940Z,75.66
2018-06-27T15:24:48.847Z,76.31
2018-06-27T15:27:18.457Z,75.87
2018-06-27T15:29:48.410Z,75.50
2018-06-27T15:32:17.923Z,76.03
2018-06-27T15:34:47.877Z,76.96
2018-06-27T15:37:17.863Z,76.46
2018-06-27T15:39:47.627Z,76.82
2018-06-27T15:42:17.650Z,76.12
2018-06-27T15:44:47.523Z,76.85
2018-06-27T15:47:17.552Z,77.63
2018-06-27T15:49:47.534Z,77.88
2018-06-27T15:52:17.255Z,77.98
2018-06-27T15:54:46.896Z,78.33
2018-06-27T15:57:16.551Z,79.10
2018-06-27T15:59:51.567Z,78.93
2018-06-27T16:02:21.859Z,79.05
2018-06-27T16:04:51.869Z,79.15
2018-06-27T16:07:21.709Z,79.41
2018-06-27T16:09:52.187Z,79.02
2018-06-27T16:12:22.030Z,79.03
2018-06-27T16:14:51.719Z,79.09
2018-06-27T16:17:21.839Z,78.75
2018-06-27T16:19:51.658Z,78.76
2018-06-27T16:22:21.293Z,78.91
2018-06-27T16:24:50.951Z,78.71
2018-06-27T16:27:20.446Z,78.84
2018-06-27T16:29:50.245Z,79.08
2018-06-27T16:32:19.945Z,78.78
2018-06-27T16:34:50.118Z,78.26
2018-06-27T16:37:19.972Z,77.83
2018-06-27T16:39:49.776Z,77.83
2018-06-27T16:42:19.609Z,77.49
2018-06-27T16:44:49.473Z,77.41
2018-06-27T16:47:19.345Z,77.18
2018-06-27T16:49:49.357Z,77.51
2018-06-27T16:52:19.033Z,77.41
2018-06-27T16:54:48.695Z,77.89
2018-06-27T16:57:18.427Z,77.74
2018-06-27T16:59:48.403Z,77.21
2018-06-27T17:02:18.367Z,77.17
2018-06-27T17:04:47.968Z,77.13
2018-06-27T17:07:17.779Z,77.09
2018-06-27T17:09:47.439Z,76.95
2018-06-27T17:12:17.374Z,76.97
2018-06-27T17:14:47.296Z,77.26
2018-06-27T17:17:17.131Z,77.14
2018-06-27T17:19:47.066Z,76.97
2018-06-27T17:22:16.616Z,76.96
2018-06-27T17:24:46.156Z,77.53
2018-06-27T17:27:16.109Z,77.02
2018-06-27T17:29:45.764Z,76.52
2018-06-27T17:32:15.437Z,76.96
2018-06-27T17:34:45.222Z,77.08
2018-06-27T17:37:15.314Z,77.54
2018-06-27T17:39:45.130Z,77.35
2018-06-27T17:42:14.935Z,77.26
2018-06-27T17:44:44.732Z,77.53
2018-06-27T17:47:14.763Z,76.57
2018-06-27T17:49:44.383Z,76.63
2018-06-27T17:52:14.026Z,77.43
2018-06-27T17:54:43.666Z,77.19
2018-06-27T17:57:13.620Z,77.49
2018-06-27T17:59:43.630Z,76.50
2018-06-27T18:02:13.476Z,76.77
2018-06-27T18:04:43.445Z,76.33
2018-06-27T18:07:13.461Z,76.17
2018-06-27T18:09:43.440Z,76.75
2018-06-27T18:12:13.408Z,76.75
2018-06-27T18:14:43.407Z,76.61
2018-06-27T18:17:13.219Z,77.41
2018-06-27T18:19:42.808Z,77.42
2018-06-27T18:22:12.560Z,77.30
2018-06-27T18:24:42.168Z,75.68
2018-06-27T18:27:12.051Z,75.86
2018-06-27T18:29:41.940Z,76.59
2018-06-27T18:32:11.695Z,76.24
2018-06-27T18:34:41.525Z,75.80
2018-06-27T18:37:11.305Z,75.18
2018-06-27T18:39:41.077Z,75.03
2018-06-27T18:42:11.007Z,75.08
2018-06-27T18:44:40.665Z,76.34
2018-06-27T18:47:10.374Z,76.93
2018-06-27T18:49:40.000Z,77.36
2018-06-27T18:52:09.781Z,76.67
2018-06-27T18:54:39.320Z,75.51
2018-06-27T18:57:09.404Z,75.59
2018-06-27T18:59:39.454Z,75.92
2018-06-27T19:02:09.985Z,75.51
2018-06-27T19:04:39.939Z,74.84
2018-06-27T19:07:09.535Z,75.42
2018-06-27T19:09:39.923Z,74.66
2018-06-27T19:12:09.611Z,75.34
2018-06-27T19:14:39.454Z,75.75
2018-06-27T19:17:09.018Z,75.14
2018-06-27T19:19:38.689Z,74.90
2018-06-27T19:22:08.404Z,75.47
2018-06-27T19:24:38.140Z,74.99
2018-06-27T19:27:08.070Z,75.12
2018-06-27T19:29:38.027Z,75.45
2018-06-27T19:32:07.869Z,75.41
2018-06-27T19:34:37.431Z,75.23
2018-06-27T19:37:07.476Z,75.74
2018-06-27T19:39:37.937Z,76.57
2018-06-27T19:42:07.457Z,77.13
2018-06-27T19:44:37.207Z,77.21
2018-06-27T19:47:07.212Z,77.62
2018-06-27T19:49:37.219Z,77.63
2018-06-27T19:52:06.980Z,77.55
2018-06-27T19:54:36.921Z,77.15
2018-06-27T19:57:06.551Z,77.02
2018-06-27T19:59:36.312Z,77.43
2018-06-27T20:02:06.367Z,77.79
2018-06-27T20:04:36.252Z,78.15
2018-06-27T20:07:05.935Z,78.18
2018-06-27T20:09:35.945Z,79.21
2018-06-27T20:12:06.135Z,80.24
2018-06-27T20:14:36.249Z,79.74
2018-06-27T20:17:05.995Z,78.83
2018-06-27T20:19:35.558Z,78.98
2018-06-27T20:22:05.505Z,78.65
2018-06-27T20:24:35.263Z,78.79
2018-06-27T20:27:05.234Z,79.16
2018-06-27T20:29:34.869Z,79.05
2018-06-27T20:32:04.812Z,78.35
2018-06-27T20:34:34.671Z,78.64
2018-06-27T20:37:04.640Z,78.93
2018-06-27T20:39:34.431Z,78.99
2018-06-27T20:42:04.244Z,77.64
2018-06-27T20:44:34.162Z,76.62
2018-06-27T20:47:03.678Z,76.57
2018-06-27T20:49:33.635Z,76.38
2018-06-27T20:52:03.266Z,76.18
2018-06-27T20:54:33.378Z,76.36
2018-06-27T20:57:03.527Z,76.16
2018-06-27T20:59:33.651Z,75.81
2018-06-27T21:02:03.499Z,76.91
2018-06-27T21:04:33.523Z,76.95
2018-06-27T21:07:03.384Z,77.15
2018-06-27T21:09:33.318Z,77.75
2018-06-27T21:12:03.142Z,77.97
2018-06-27T21:14:33.057Z,78.02
2018-06-27T21:17:02.699Z,77.78
2018-06-27T21:19:32.343Z,78.15
2018-06-27T21:22:02.028Z,77.57
2018-06-27T21:24:31.895Z,77.09
2018-06-27T21:27:01.630Z,76.82
2018-06-27T21:29:31.415Z,77.25
2018-06-27T21:32:01.276Z,77.36
2018-06-27T21:34:30.934Z,78.17
2018-06-27T21:37:00.572Z,77.75
2018-06-27T21:39:30.526Z,77.62
2018-06-27T21:42:00.319Z,77.70
2018-06-27T21:44:30.198Z,77.21
2018-06-27T21:46:59.923Z,77.61
2018-06-27T21:49:29.422Z,77.62
2018-06-27T21:51:59.075Z,77.72
2018-06-27T21:54:28.643Z,77.81
2018-06-27T21:56:58.455Z,77.84
2018-06-27T21:59:28.455Z,78.46
2018-06-27T22:01:58.247Z,77.74
2018-06-27T22:04:28.154Z,77.93
2018-06-27T22:06:58.143Z,77.37
2018-06-27T22:09:28.116Z,77.30
2018-06-27T22:11:57.953Z,78.11
2018-06-27T22:14:27.749Z,76.18
2018-06-27T22:16:57.329Z,75.57
2018-06-27T22:19:27.139Z,76.28
2018-06-27T22:21:56.801Z,75.51
2018-06-27T22:24:26.723Z,75.42
2018-06-27T22:26:56.435Z,76.02
2018-06-27T22:29:26.309Z,76.69
2018-06-27T22:31:56.137Z,76.60
2018-06-27T22:34:26.083Z,76.80
2018-06-27T22:36:55.835Z,76.29
2018-06-27T22:39:25.672Z,77.37
2018-06-27T22:41:55.761Z,77.59
2018-06-27T22:44:25.309Z,78.52
2018-06-27T22:46:55.104Z,78.27
2018-06-27T22:49:24.822Z,78.65
2018-06-27T22:51:54.414Z,79.23
2018-06-27T22:54:24.198Z,79.00
2018-06-27T22:56:54.192Z,79.75
2018-06-27T22:59:23.843Z,80.11
2018-06-27T23:01:54.052Z,79.69
2018-06-27T23:04:23.722Z,79.17
2018-06-27T23:06:53.679Z,79.63
2018-06-27T23:09:23.478Z,79.78
2018-06-27T23:11:53.241Z,79.54
2018-06-27T23:14:23.206Z,78.92
2018-06-27T23:16:53.286Z,78.78
2018-06-27T23:19:22.997Z,79.61
2018-06-27T23:21:52.463Z,78.96
2018-06-27T23:24:22.177Z,78.17
2018-06-27T23:26:51.879Z,77.87
2018-06-27T23:29:21.662Z,76.88
2018-06-27T23:31:51.581Z,76.69
2018-06-27T23:34:21.454Z,77.47
2018-06-27T23:36:51.105Z,77.84
2018-06-27T23:39:20.884Z,77.60
2018-06-27T23:41:50.487Z,76.89
2018-06-27T23:44:20.390Z,77.11
2018-06-27T23:46:50.088Z,76.60
2018-06-27T23:49:19.699Z,76.88
2018-06-27T23:51:49.360Z,77.02
2018-06-27T23:54:19.147Z,76.85
2018-06-27T23:56:48.886Z,77.55
2018-06-27T23:59:18.676Z,76.91
